sensor_id;sensor_type;location;lat;lon;timestamp;pressure;altitude;pressure_sealevel;temperature;humidity
5952;BME280;3001;42.622;23.194;2023-04-27T00:00:12;91011.38;;;10.80;56.92
5952;BME280;3001;42.622;23.194;2023-04-27T00:02:39;90998.97;;;10.85;54.98
5952;BME280;3001;42.622;23.194;2023-04-27T00:05:07;91007.81;;;11.01;57.30
5952;BME280;3001;42.622;23.194;2023-04-27T00:07:36;91010.28;;;10.98;57.51
5952;BME280;3001;42.622;23.194;2023-04-27T00:10:03;91004.34;;;10.80;55.70
5952;BME280;3001;42.622;23.194;2023-04-27T00:12:32;91006.31;;;10.83;56.75
5952;BME280;3001;42.622;23.194;2023-04-27T00:14:59;91008.56;;;11.02;57.59
5952;BME280;3001;42.622;23.194;2023-04-27T00:17:25;91002.38;;;10.77;57.66
5952;BME280;3001;42.622;23.194;2023-04-27T00:19:52;91004.94;;;10.94;58.68
5952;BME280;3001;42.622;23.194;2023-04-27T00:22:19;91003.41;;;10.93;60.02
5952;BME280;3001;42.622;23.194;2023-04-27T00:24:47;90997.00;;;10.82;60.51
5952;BME280;3001;42.622;23.194;2023-04-27T00:27:13;90997.31;;;10.81;60.91
5952;BME280;3001;42.622;23.194;2023-04-27T00:29:40;90995.47;;;10.81;59.80
5952;BME280;3001;42.622;23.194;2023-04-27T00:32:07;90995.63;;;10.85;57.70
5952;BME280;3001;42.622;23.194;2023-04-27T00:34:34;90991.09;;;10.65;56.58
5952;BME280;3001;42.622;23.194;2023-04-27T00:37:01;90995.22;;;10.49;58.92
5952;BME280;3001;42.622;23.194;2023-04-27T00:39:28;90992.44;;;10.54;58.02
5952;BME280;3001;42.622;23.194;2023-04-27T00:41:56;90999.94;;;10.30;58.36
5952;BME280;3001;42.622;23.194;2023-04-27T00:44:23;90997.97;;;10.27;58.61
5952;BME280;3001;42.622;23.194;2023-04-27T00:46:50;90999.19;;;10.21;58.76
5952;BME280;3001;42.622;23.194;2023-04-27T00:49:17;91004.34;;;10.04;59.57
5952;BME280;3001;42.622;23.194;2023-04-27T00:51:44;91008.47;;;10.30;59.36
5952;BME280;3001;42.622;23.194;2023-04-27T00:54:11;90995.81;;;10.29;58.80
5952;BME280;3001;42.622;23.194;2023-04-27T00:56:38;91001.63;;;10.34;58.52
5952;BME280;3001;42.622;23.194;2023-04-27T00:59:06;91002.38;;;10.43;58.76
5952;BME280;3001;42.622;23.194;2023-04-27T01:01:33;91007.66;;;9.96;58.89
5952;BME280;3001;42.622;23.194;2023-04-27T01:04:00;91002.56;;;9.74;58.43
5952;BME280;3001;42.622;23.194;2023-04-27T01:06:27;91002.28;;;9.76;58.24
5952;BME280;3001;42.622;23.194;2023-04-27T01:08:54;91014.94;;;9.77;58.84
5952;BME280;3001;42.622;23.194;2023-04-27T01:11:20;91004.16;;;10.01;59.33
5952;BME280;3001;42.622;23.194;2023-04-27T01:13:47;91013.19;;;10.03;59.92
5952;BME280;3001;42.622;23.194;2023-04-27T01:16:17;91015.03;;;10.03;60.10
5952;BME280;3001;42.622;23.194;2023-04-27T01:18:44;91008.22;;;9.85;60.36
5952;BME280;3001;42.622;23.194;2023-04-27T01:21:11;91004.91;;;9.93;59.50
5952;BME280;3001;42.622;23.194;2023-04-27T01:23:39;91006.53;;;9.72;59.14
5952;BME280;3001;42.622;23.194;2023-04-27T01:26:06;91018.31;;;9.86;58.24
5952;BME280;3001;42.622;23.194;2023-04-27T01:28:33;91009.94;;;9.89;59.43
5952;BME280;3001;42.622;23.194;2023-04-27T01:30:59;91028.56;;;9.91;58.11
5952;BME280;3001;42.622;23.194;2023-04-27T01:33:26;91021.00;;;10.03;56.74
5952;BME280;3001;42.622;23.194;2023-04-27T01:35:53;91022.50;;;10.04;57.88
5952;BME280;3001;42.622;23.194;2023-04-27T01:38:19;91026.41;;;9.93;57.76
5952;BME280;3001;42.622;23.194;2023-04-27T01:40:47;91019.66;;;9.75;57.99
5952;BME280;3001;42.622;23.194;2023-04-27T01:43:14;91021.13;;;9.59;56.04
5952;BME280;3001;42.622;23.194;2023-04-27T01:45:41;91024.50;;;9.60;56.92
5952;BME280;3001;42.622;23.194;2023-04-27T01:48:07;91021.75;;;9.65;58.54
5952;BME280;3001;42.622;23.194;2023-04-27T01:50:34;91022.41;;;9.31;59.20
5952;BME280;3001;42.622;23.194;2023-04-27T01:53:01;91028.09;;;9.42;56.60
5952;BME280;3001;42.622;23.194;2023-04-27T01:55:28;91023.53;;;9.47;57.88
5952;BME280;3001;42.622;23.194;2023-04-27T01:57:56;91028.31;;;9.23;60.65
5952;BME280;3001;42.622;23.194;2023-04-27T02:00:23;91019.56;;;9.11;58.74
5952;BME280;3001;42.622;23.194;2023-04-27T02:02:49;91016.56;;;9.26;58.38
5952;BME280;3001;42.622;23.194;2023-04-27T02:05:17;91017.69;;;9.03;61.26
5952;BME280;3001;42.622;23.194;2023-04-27T02:07:44;91011.34;;;9.17;59.24
5952;BME280;3001;42.622;23.194;2023-04-27T02:10:11;91027.69;;;9.57;58.38
5952;BME280;3001;42.622;23.194;2023-04-27T02:12:37;91011.97;;;9.53;58.45
5952;BME280;3001;42.622;23.194;2023-04-27T02:15:07;91015.56;;;9.35;59.49
5952;BME280;3001;42.622;23.194;2023-04-27T02:17:34;91010.56;;;9.47;58.92
5952;BME280;3001;42.622;23.194;2023-04-27T02:20:01;91010.88;;;9.46;60.08
5952;BME280;3001;42.622;23.194;2023-04-27T02:22:30;91013.03;;;9.52;60.54
5952;BME280;3001;42.622;23.194;2023-04-27T02:24:56;91014.91;;;9.69;58.89
5952;BME280;3001;42.622;23.194;2023-04-27T02:27:23;91017.25;;;9.87;59.40
5952;BME280;3001;42.622;23.194;2023-04-27T02:29:50;91014.31;;;9.72;60.13
5952;BME280;3001;42.622;23.194;2023-04-27T02:32:18;91022.22;;;9.67;60.56
5952;BME280;3001;42.622;23.194;2023-04-27T02:34:45;91012.84;;;9.49;59.41
5952;BME280;3001;42.622;23.194;2023-04-27T02:37:11;91025.00;;;9.70;58.67
5952;BME280;3001;42.622;23.194;2023-04-27T02:39:38;91028.22;;;9.76;58.77
5952;BME280;3001;42.622;23.194;2023-04-27T02:42:04;91026.84;;;9.78;58.01
5952;BME280;3001;42.622;23.194;2023-04-27T02:44:31;91033.44;;;9.84;57.59
5952;BME280;3001;42.622;23.194;2023-04-27T02:46:58;91035.53;;;9.74;57.96
5952;BME280;3001;42.622;23.194;2023-04-27T02:49:26;91027.91;;;9.77;58.85
5952;BME280;3001;42.622;23.194;2023-04-27T02:51:52;91028.50;;;9.74;59.30
5952;BME280;3001;42.622;23.194;2023-04-27T02:54:19;91035.63;;;10.08;57.25
5952;BME280;3001;42.622;23.194;2023-04-27T02:56:46;91037.44;;;9.99;56.76
5952;BME280;3001;42.622;23.194;2023-04-27T02:59:13;91037.84;;;9.84;55.41
5952;BME280;3001;42.622;23.194;2023-04-27T03:01:39;91037.09;;;9.83;54.81
5952;BME280;3001;42.622;23.194;2023-04-27T03:04:06;91033.41;;;9.76;56.36
5952;BME280;3001;42.622;23.194;2023-04-27T03:06:34;91038.91;;;9.83;57.11
5952;BME280;3001;42.622;23.194;2023-04-27T03:09:01;91050.19;;;9.78;56.01
5952;BME280;3001;42.622;23.194;2023-04-27T03:11:29;91050.22;;;9.48;56.25
5952;BME280;3001;42.622;23.194;2023-04-27T03:13:56;91050.34;;;9.43;54.26
5952;BME280;3001;42.622;23.194;2023-04-27T03:16:23;91050.22;;;9.48;55.71
5952;BME280;3001;42.622;23.194;2023-04-27T03:18:49;91061.56;;;9.60;57.13
5952;BME280;3001;42.622;23.194;2023-04-27T03:21:16;91042.41;;;9.39;58.80
5952;BME280;3001;42.622;23.194;2023-04-27T03:23:44;91060.00;;;9.51;56.00
5952;BME280;3001;42.622;23.194;2023-04-27T03:26:12;91054.09;;;9.28;55.65
5952;BME280;3001;42.622;23.194;2023-04-27T03:28:39;91068.69;;;9.46;56.95
5952;BME280;3001;42.622;23.194;2023-04-27T03:31:07;91063.97;;;9.48;58.83
5952;BME280;3001;42.622;23.194;2023-04-27T03:33:34;91069.78;;;9.54;59.50
5952;BME280;3001;42.622;23.194;2023-04-27T03:36:02;91060.50;;;9.61;58.29
5952;BME280;3001;42.622;23.194;2023-04-27T03:38:29;91065.22;;;9.29;56.23
5952;BME280;3001;42.622;23.194;2023-04-27T03:40:57;91072.72;;;9.30;57.82
5952;BME280;3001;42.622;23.194;2023-04-27T03:43:24;91074.38;;;9.26;58.25
5952;BME280;3001;42.622;23.194;2023-04-27T03:45:51;91076.09;;;9.39;56.20
5952;BME280;3001;42.622;23.194;2023-04-27T03:48:18;91079.34;;;9.45;54.56
5952;BME280;3001;42.622;23.194;2023-04-27T03:50:45;91072.97;;;9.51;57.19
5952;BME280;3001;42.622;23.194;2023-04-27T03:53:13;91078.44;;;9.49;54.84
5952;BME280;3001;42.622;23.194;2023-04-27T03:55:41;91076.78;;;9.23;55.88
5952;BME280;3001;42.622;23.194;2023-04-27T03:58:10;91083.13;;;9.39;56.20
5952;BME280;3001;42.622;23.194;2023-04-27T04:00:37;91091.13;;;9.59;57.16
5952;BME280;3001;42.622;23.194;2023-04-27T04:03:05;91091.34;;;9.71;55.14
5952;BME280;3001;42.622;23.194;2023-04-27T04:05:33;91078.66;;;9.70;54.75
5952;BME280;3001;42.622;23.194;2023-04-27T04:07:59;91097.94;;;9.77;53.75
5952;BME280;3001;42.622;23.194;2023-04-27T04:10:26;91099.81;;;9.85;54.56
5952;BME280;3001;42.622;23.194;2023-04-27T04:12:53;91104.75;;;9.65;54.40
5952;BME280;3001;42.622;23.194;2023-04-27T04:15:21;91109.97;;;9.73;53.58
5952;BME280;3001;42.622;23.194;2023-04-27T04:17:47;91111.34;;;9.79;55.64
5952;BME280;3001;42.622;23.194;2023-04-27T04:20:14;91113.44;;;9.60;54.81
5952;BME280;3001;42.622;23.194;2023-04-27T04:22:41;91117.47;;;9.44;53.71
5952;BME280;3001;42.622;23.194;2023-04-27T04:25:08;91115.34;;;9.46;54.60
5952;BME280;3001;42.622;23.194;2023-04-27T04:27:35;91117.19;;;9.54;55.02
5952;BME280;3001;42.622;23.194;2023-04-27T04:30:03;91119.78;;;9.54;53.73
5952;BME280;3001;42.622;23.194;2023-04-27T04:32:32;91125.28;;;9.53;55.12
5952;BME280;3001;42.622;23.194;2023-04-27T04:35:02;91124.38;;;9.57;53.29
5952;BME280;3001;42.622;23.194;2023-04-27T04:37:32;91122.22;;;9.51;54.69
5952;BME280;3001;42.622;23.194;2023-04-27T04:39:59;91132.28;;;9.83;54.80
5952;BME280;3001;42.622;23.194;2023-04-27T04:42:26;91130.63;;;9.87;51.44
5952;BME280;3001;42.622;23.194;2023-04-27T04:44:53;91132.09;;;10.10;52.19
5952;BME280;3001;42.622;23.194;2023-04-27T04:47:19;91130.56;;;10.09;52.84
5952;BME280;3001;42.622;23.194;2023-04-27T04:49:47;91138.03;;;10.02;51.83
5952;BME280;3001;42.622;23.194;2023-04-27T04:52:14;91136.97;;;9.72;53.37
5952;BME280;3001;42.622;23.194;2023-04-27T04:54:41;91144.78;;;9.81;51.58
5952;BME280;3001;42.622;23.194;2023-04-27T04:57:07;91146.41;;;9.99;51.36
5952;BME280;3001;42.622;23.194;2023-04-27T04:59:34;91155.13;;;10.03;52.50
5952;BME280;3001;42.622;23.194;2023-04-27T05:02:01;91148.16;;;10.12;53.68
5952;BME280;3001;42.622;23.194;2023-04-27T05:04:27;91153.53;;;10.24;52.74
5952;BME280;3001;42.622;23.194;2023-04-27T05:06:56;91143.81;;;9.99;53.94
5952;BME280;3001;42.622;23.194;2023-04-27T05:09:24;91143.88;;;10.07;52.87
5952;BME280;3001;42.622;23.194;2023-04-27T05:11:51;91150.44;;;10.13;53.42
5952;BME280;3001;42.622;23.194;2023-04-27T05:14:17;91156.25;;;10.10;51.58
5952;BME280;3001;42.622;23.194;2023-04-27T05:16:44;91159.53;;;10.32;52.43
5952;BME280;3001;42.622;23.194;2023-04-27T05:19:13;91157.53;;;9.99;54.93
5952;BME280;3001;42.622;23.194;2023-04-27T05:21:42;91157.06;;;10.27;54.91
5952;BME280;3001;42.622;23.194;2023-04-27T05:24:10;91168.19;;;10.20;56.72
5952;BME280;3001;42.622;23.194;2023-04-27T05:26:37;91164.19;;;10.14;54.22
5952;BME280;3001;42.622;23.194;2023-04-27T05:29:04;91145.72;;;10.15;53.57
5952;BME280;3001;42.622;23.194;2023-04-27T05:31:30;91167.19;;;10.37;53.65
5952;BME280;3001;42.622;23.194;2023-04-27T05:33:57;91162.63;;;10.43;52.74
5952;BME280;3001;42.622;23.194;2023-04-27T05:36:24;91172.84;;;10.48;50.80
5952;BME280;3001;42.622;23.194;2023-04-27T05:38:51;91171.16;;;10.43;51.54
5952;BME280;3001;42.622;23.194;2023-04-27T05:41:19;91170.41;;;10.43;52.46
5952;BME280;3001;42.622;23.194;2023-04-27T05:43:46;91177.91;;;10.53;52.14
5952;BME280;3001;42.622;23.194;2023-04-27T05:46:12;91174.44;;;10.66;53.91
5952;BME280;3001;42.622;23.194;2023-04-27T05:48:39;91179.75;;;10.69;54.72
5952;BME280;3001;42.622;23.194;2023-04-27T05:51:06;91186.56;;;10.40;50.76
5952;BME280;3001;42.622;23.194;2023-04-27T05:53:33;91184.34;;;10.55;51.45
5952;BME280;3001;42.622;23.194;2023-04-27T05:56:00;91184.94;;;10.61;52.44
5952;BME280;3001;42.622;23.194;2023-04-27T05:58:30;91191.34;;;10.55;50.60
5952;BME280;3001;42.622;23.194;2023-04-27T06:00:56;91183.09;;;10.53;51.82
5952;BME280;3001;42.622;23.194;2023-04-27T06:03:23;91182.16;;;10.40;53.81
5952;BME280;3001;42.622;23.194;2023-04-27T06:05:53;91177.91;;;10.53;52.67
5952;BME280;3001;42.622;23.194;2023-04-27T06:08:20;91173.50;;;10.62;53.14
5952;BME280;3001;42.622;23.194;2023-04-27T06:10:47;91190.50;;;10.85;52.83
5952;BME280;3001;42.622;23.194;2023-04-27T06:13:13;91186.53;;;11.04;52.89
5952;BME280;3001;42.622;23.194;2023-04-27T06:15:42;91183.03;;;10.92;53.29
5952;BME280;3001;42.622;23.194;2023-04-27T06:18:08;91184.72;;;11.13;52.74
5952;BME280;3001;42.622;23.194;2023-04-27T06:20:35;91189.75;;;11.10;49.69
5952;BME280;3001;42.622;23.194;2023-04-27T06:23:02;91181.34;;;11.13;50.51
5952;BME280;3001;42.622;23.194;2023-04-27T06:25:29;91187.47;;;11.34;50.45
5952;BME280;3001;42.622;23.194;2023-04-27T06:27:56;91183.94;;;11.55;53.03
5952;BME280;3001;42.622;23.194;2023-04-27T06:30:23;91186.72;;;11.59;53.29
5952;BME280;3001;42.622;23.194;2023-04-27T06:32:51;91187.63;;;11.63;50.33
5952;BME280;3001;42.622;23.194;2023-04-27T06:35:18;91184.44;;;11.57;50.29
5952;BME280;3001;42.622;23.194;2023-04-27T06:37:45;91185.16;;;11.75;51.04
5952;BME280;3001;42.622;23.194;2023-04-27T06:40:12;91178.88;;;11.67;50.36
5952;BME280;3001;42.622;23.194;2023-04-27T06:42:39;91177.06;;;11.68;48.43
5952;BME280;3001;42.622;23.194;2023-04-27T06:45:06;91171.38;;;11.74;47.85
5952;BME280;3001;42.622;23.194;2023-04-27T06:47:33;91180.56;;;11.55;48.86
5952;BME280;3001;42.622;23.194;2023-04-27T06:50:01;91174.00;;;11.66;51.26
5952;BME280;3001;42.622;23.194;2023-04-27T06:52:30;91184.25;;;11.62;51.11
5952;BME280;3001;42.622;23.194;2023-04-27T06:54:57;91183.47;;;11.62;50.68
5952;BME280;3001;42.622;23.194;2023-04-27T06:57:24;91182.06;;;11.90;49.41
5952;BME280;3001;42.622;23.194;2023-04-27T06:59:50;91175.78;;;11.99;50.37
5952;BME280;3001;42.622;23.194;2023-04-27T07:02:17;91186.50;;;11.81;50.16
5952;BME280;3001;42.622;23.194;2023-04-27T07:04:44;91178.72;;;11.81;47.31
5952;BME280;3001;42.622;23.194;2023-04-27T07:07:12;91180.22;;;11.82;48.99
5952;BME280;3001;42.622;23.194;2023-04-27T07:09:39;91172.94;;;11.75;47.79
5952;BME280;3001;42.622;23.194;2023-04-27T07:12:05;91168.63;;;11.71;49.95
5952;BME280;3001;42.622;23.194;2023-04-27T07:14:32;91154.72;;;11.50;50.99
5952;BME280;3001;42.622;23.194;2023-04-27T07:16:59;91172.94;;;11.75;49.46
5952;BME280;3001;42.622;23.194;2023-04-27T07:19:25;91168.72;;;12.00;49.94
5952;BME280;3001;42.622;23.194;2023-04-27T07:21:52;91170.69;;;12.02;50.05
5952;BME280;3001;42.622;23.194;2023-04-27T07:24:20;91172.94;;;11.67;52.05
5952;BME280;3001;42.622;23.194;2023-04-27T07:26:47;91172.94;;;11.67;50.99
5952;BME280;3001;42.622;23.194;2023-04-27T07:29:13;91166.88;;;12.00;50.52
5952;BME280;3001;42.622;23.194;2023-04-27T07:31:41;91177.41;;;12.03;49.59
5952;BME280;3001;42.622;23.194;2023-04-27T07:34:08;91163.28;;;12.13;49.69
5952;BME280;3001;42.622;23.194;2023-04-27T07:36:35;91165.41;;;12.19;50.04
5952;BME280;3001;42.622;23.194;2023-04-27T07:39:02;91166.81;;;12.25;48.23
5952;BME280;3001;42.622;23.194;2023-04-27T07:41:32;91164.75;;;12.31;50.57
5952;BME280;3001;42.622;23.194;2023-04-27T07:43:59;91173.00;;;12.41;50.73
5952;BME280;3001;42.622;23.194;2023-04-27T07:46:26;91172.31;;;12.53;50.53
5952;BME280;3001;42.622;23.194;2023-04-27T07:48:54;91165.44;;;12.57;48.07
5952;BME280;3001;42.622;23.194;2023-04-27T07:51:23;91174.00;;;12.57;48.41
5952;BME280;3001;42.622;23.194;2023-04-27T07:53:52;91172.13;;;12.66;48.58
5952;BME280;3001;42.622;23.194;2023-04-27T07:56:19;91173.22;;;12.86;49.96
5952;BME280;3001;42.622;23.194;2023-04-27T07:58:47;91170.16;;;12.92;47.92
5952;BME280;3001;42.622;23.194;2023-04-27T08:01:14;91165.63;;;13.01;45.49
5952;BME280;3001;42.622;23.194;2023-04-27T08:03:41;91174.72;;;12.95;47.08
5952;BME280;3001;42.622;23.194;2023-04-27T08:06:08;91173.91;;;13.03;46.64
5952;BME280;3001;42.622;23.194;2023-04-27T08:08:35;91179.84;;;13.12;47.31
5952;BME280;3001;42.622;23.194;2023-04-27T08:11:02;91171.63;;;13.02;46.98
5952;BME280;3001;42.622;23.194;2023-04-27T08:13:29;91185.16;;;12.95;44.87
5952;BME280;3001;42.622;23.194;2023-04-27T08:15:57;91180.69;;;12.96;45.41
5952;BME280;3001;42.622;23.194;2023-04-27T08:18:23;91180.09;;;12.90;45.04
5952;BME280;3001;42.622;23.194;2023-04-27T08:20:50;91171.94;;;12.92;45.96
5952;BME280;3001;42.622;23.194;2023-04-27T08:23:17;91176.06;;;13.01;45.90
5952;BME280;3001;42.622;23.194;2023-04-27T08:25:44;91179.75;;;13.00;45.67
5952;BME280;3001;42.622;23.194;2023-04-27T08:28:11;91175.94;;;12.98;47.23
5952;BME280;3001;42.622;23.194;2023-04-27T08:30:38;91178.03;;;13.04;48.17
5952;BME280;3001;42.622;23.194;2023-04-27T08:33:06;91169.72;;;13.11;48.68
5952;BME280;3001;42.622;23.194;2023-04-27T08:35:33;91170.28;;;13.16;48.46
5952;BME280;3001;42.622;23.194;2023-04-27T08:38:00;91174.88;;;13.19;48.77
5952;BME280;3001;42.622;23.194;2023-04-27T08:40:27;91180.19;;;13.43;48.60
5952;BME280;3001;42.622;23.194;2023-04-27T08:42:55;91176.38;;;13.61;48.67
5952;BME280;3001;42.622;23.194;2023-04-27T08:45:22;91180.13;;;13.72;48.28
5952;BME280;3001;42.622;23.194;2023-04-27T08:47:49;91175.91;;;13.91;47.51
5952;BME280;3001;42.622;23.194;2023-04-27T08:50:18;91176.72;;;14.04;46.40
5952;BME280;3001;42.622;23.194;2023-04-27T08:52:46;91177.81;;;14.03;47.15
5952;BME280;3001;42.622;23.194;2023-04-27T08:55:13;91182.28;;;14.14;46.90
5952;BME280;3001;42.622;23.194;2023-04-27T08:57:40;91183.31;;;14.22;46.67
5952;BME280;3001;42.622;23.194;2023-04-27T09:00:08;91185.72;;;14.27;46.39
5952;BME280;3001;42.622;23.194;2023-04-27T09:02:43;91183.22;;;14.30;43.96
5952;BME280;3001;42.622;23.194;2023-04-27T09:05:15;91187.47;;;14.35;44.27
5952;BME280;3001;42.622;23.194;2023-04-27T09:07:57;91193.34;;;14.20;42.63
5952;BME280;3001;42.622;23.194;2023-04-27T09:10:25;91183.31;;;13.89;43.60
5952;BME280;3001;42.622;23.194;2023-04-27T09:12:58;91196.44;;;13.81;43.14
5952;BME280;3001;42.622;23.194;2023-04-27T09:15:25;91185.72;;;13.94;43.58
5952;BME280;3001;42.622;23.194;2023-04-27T09:17:56;91185.63;;;13.91;44.42
5952;BME280;3001;42.622;23.194;2023-04-27T09:20:23;91183.81;;;14.03;43.56
5952;BME280;3001;42.622;23.194;2023-04-27T09:22:52;91178.56;;;14.03;43.92
5952;BME280;3001;42.622;23.194;2023-04-27T09:25:24;91177.13;;;13.94;43.33
5952;BME280;3001;42.622;23.194;2023-04-27T09:27:51;91186.50;;;13.95;43.34
5952;BME280;3001;42.622;23.194;2023-04-27T09:30:18;91177.72;;;14.11;44.59
5952;BME280;3001;42.622;23.194;2023-04-27T09:32:50;91177.78;;;14.23;43.08
5952;BME280;3001;42.622;23.194;2023-04-27T09:35:21;91177.44;;;14.25;41.95
5952;BME280;3001;42.622;23.194;2023-04-27T09:37:49;91154.06;;;14.40;40.42
5952;BME280;3001;42.622;23.194;2023-04-27T09:40:18;91170.72;;;14.60;42.56
5952;BME280;3001;42.622;23.194;2023-04-27T09:42:45;91162.56;;;14.73;42.52
5952;BME280;3001;42.622;23.194;2023-04-27T09:45:12;91163.72;;;14.88;42.80
5952;BME280;3001;42.622;23.194;2023-04-27T09:47:39;91160.59;;;14.70;41.94
5952;BME280;3001;42.622;23.194;2023-04-27T09:50:07;91157.88;;;14.43;42.11
5952;BME280;3001;42.622;23.194;2023-04-27T09:52:34;91158.63;;;14.67;43.62
5952;BME280;3001;42.622;23.194;2023-04-27T09:55:02;91162.66;;;14.77;45.34
5952;BME280;3001;42.622;23.194;2023-04-27T09:57:38;91158.41;;;14.72;43.07
5952;BME280;3001;42.622;23.194;2023-04-27T10:00:16;91156.13;;;14.83;42.38
5952;BME280;3001;42.622;23.194;2023-04-27T10:02:56;91152.41;;;14.84;41.73
5952;BME280;3001;42.622;23.194;2023-04-27T10:05:36;91160.47;;;14.91;41.98
5952;BME280;3001;42.622;23.194;2023-04-27T10:08:05;91162.59;;;15.25;41.54
5952;BME280;3001;42.622;23.194;2023-04-27T10:10:41;91162.84;;;15.59;39.81
5952;BME280;3001;42.622;23.194;2023-04-27T10:13:20;91162.13;;;15.74;34.36
5952;BME280;3001;42.622;23.194;2023-04-27T10:15:47;91162.41;;;15.84;35.13
5952;BME280;3001;42.622;23.194;2023-04-27T10:18:24;91162.38;;;15.69;39.26
5952;BME280;3001;42.622;23.194;2023-04-27T10:20:51;91168.72;;;15.95;37.76
5952;BME280;3001;42.622;23.194;2023-04-27T10:23:22;91167.56;;;15.54;39.53
5952;BME280;3001;42.622;23.194;2023-04-27T10:25:49;91162.22;;;15.50;40.88
5952;BME280;3001;42.622;23.194;2023-04-27T10:28:17;91158.19;;;15.53;38.89
5952;BME280;3001;42.622;23.194;2023-04-27T10:30:46;91168.97;;;15.63;39.30
5952;BME280;3001;42.622;23.194;2023-04-27T10:33:15;91163.97;;;16.01;34.75
5952;BME280;3001;42.622;23.194;2023-04-27T10:35:44;91159.50;;;16.01;35.62
5952;BME280;3001;42.622;23.194;2023-04-27T10:38:19;91153.69;;;16.23;39.37
5952;BME280;3001;42.622;23.194;2023-04-27T10:40:54;91154.19;;;16.56;35.96
5952;BME280;3001;42.622;23.194;2023-04-27T10:43:25;91155.25;;;16.71;37.80
5952;BME280;3001;42.622;23.194;2023-04-27T10:45:52;91149.59;;;16.69;39.53
5952;BME280;3001;42.622;23.194;2023-04-27T10:48:19;91157.28;;;16.62;37.90
5952;BME280;3001;42.622;23.194;2023-04-27T10:50:46;91155.09;;;16.64;39.15
5952;BME280;3001;42.622;23.194;2023-04-27T10:53:13;91162.78;;;16.57;35.92
5952;BME280;3001;42.622;23.194;2023-04-27T10:55:39;91159.16;;;16.61;36.95
5952;BME280;3001;42.622;23.194;2023-04-27T10:58:06;91156.97;;;16.63;36.74
5952;BME280;3001;42.622;23.194;2023-04-27T11:00:35;91159.06;;;16.73;35.11
5952;BME280;3001;42.622;23.194;2023-04-27T11:03:12;91141.72;;;16.84;34.47
5952;BME280;3001;42.622;23.194;2023-04-27T11:05:40;91139.41;;;16.83;33.53
5952;BME280;3001;42.622;23.194;2023-04-27T11:08:08;91153.38;;;16.87;32.84
5952;BME280;3001;42.622;23.194;2023-04-27T11:10:38;91153.56;;;16.63;34.03
5952;BME280;3001;42.622;23.194;2023-04-27T11:13:07;91148.41;;;16.66;37.35
5952;BME280;3001;42.622;23.194;2023-04-27T11:15:46;91149.59;;;16.53;37.21
5952;BME280;3001;42.622;23.194;2023-04-27T11:18:14;91147.31;;;16.52;37.13
5952;BME280;3001;42.622;23.194;2023-04-27T11:20:42;91153.50;;;16.59;38.77
5952;BME280;3001;42.622;23.194;2023-04-27T11:23:09;91147.28;;;16.83;35.73
5952;BME280;3001;42.622;23.194;2023-04-27T11:25:36;91150.50;;;16.92;35.85
5952;BME280;3001;42.622;23.194;2023-04-27T11:28:03;91148.38;;;17.32;38.04
5952;BME280;3001;42.622;23.194;2023-04-27T11:30:30;91148.75;;;17.49;35.85
5952;BME280;3001;42.622;23.194;2023-04-27T11:33:07;91152.38;;;17.60;36.01
5952;BME280;3001;42.622;23.194;2023-04-27T11:35:33;91150.78;;;17.74;34.09
5952;BME280;3001;42.622;23.194;2023-04-27T11:38:01;91145.72;;;17.66;36.10
5952;BME280;3001;42.622;23.194;2023-04-27T11:40:27;91160.91;;;17.76;34.76
5952;BME280;3001;42.622;23.194;2023-04-27T11:42:59;91147.53;;;17.62;35.26
5952;BME280;3001;42.622;23.194;2023-04-27T11:45:28;91160.38;;;17.67;35.19
5952;BME280;3001;42.622;23.194;2023-04-27T11:47:58;91172.00;;;17.66;34.00
5952;BME280;3001;42.622;23.194;2023-04-27T11:50:26;91163.50;;;17.53;33.62
5952;BME280;3001;42.622;23.194;2023-04-27T11:52:53;91166.66;;;17.43;36.11
5952;BME280;3001;42.622;23.194;2023-04-27T11:55:20;91166.34;;;17.30;36.58
5952;BME280;3001;42.622;23.194;2023-04-27T11:57:55;91172.25;;;17.08;34.77
5952;BME280;3001;42.622;23.194;2023-04-27T12:00:22;91174.44;;;16.90;34.30
5952;BME280;3001;42.622;23.194;2023-04-27T12:02:49;91179.72;;;16.59;35.59
5952;BME280;3001;42.622;23.194;2023-04-27T12:05:17;91179.72;;;16.59;35.99
5952;BME280;3001;42.622;23.194;2023-04-27T12:07:45;91176.59;;;16.54;35.98
5952;BME280;3001;42.622;23.194;2023-04-27T12:10:12;91172.59;;;16.44;35.18
5952;BME280;3001;42.622;23.194;2023-04-27T12:12:38;91176.75;;;16.45;36.54
5952;BME280;3001;42.622;23.194;2023-04-27T12:15:06;91182.41;;;16.47;35.69
5952;BME280;3001;42.622;23.194;2023-04-27T12:17:33;91175.31;;;16.48;35.49
5952;BME280;3001;42.622;23.194;2023-04-27T12:20:00;91178.78;;;16.36;35.91
5952;BME280;3001;42.622;23.194;2023-04-27T12:22:28;91184.88;;;16.40;38.60
5952;BME280;3001;42.622;23.194;2023-04-27T12:24:54;91189.59;;;16.35;38.65
5952;BME280;3001;42.622;23.194;2023-04-27T12:27:21;91194.94;;;16.38;38.27
5952;BME280;3001;42.622;23.194;2023-04-27T12:29:48;91187.44;;;16.25;37.20
5952;BME280;3001;42.622;23.194;2023-04-27T12:32:15;91188.88;;;16.22;38.02
5952;BME280;3001;42.622;23.194;2023-04-27T12:34:41;91189.03;;;16.29;36.93
5952;BME280;3001;42.622;23.194;2023-04-27T12:37:08;91185.19;;;16.39;36.87
5952;BME280;3001;42.622;23.194;2023-04-27T12:39:36;91192.06;;;16.43;36.92
5952;BME280;3001;42.622;23.194;2023-04-27T12:42:03;91188.00;;;16.77;38.10
5952;BME280;3001;42.622;23.194;2023-04-27T12:44:30;91193.34;;;16.65;35.40
5952;BME280;3001;42.622;23.194;2023-04-27T12:46:57;91186.75;;;16.71;33.23
5952;BME280;3001;42.622;23.194;2023-04-27T12:49:24;91181.66;;;16.78;35.40
5952;BME280;3001;42.622;23.194;2023-04-27T12:51:51;91185.44;;;16.96;36.38
5952;BME280;3001;42.622;23.194;2023-04-27T12:54:18;91187.25;;;17.26;35.88
5952;BME280;3001;42.622;23.194;2023-04-27T12:56:46;91181.03;;;17.00;36.56
5952;BME280;3001;42.622;23.194;2023-04-27T12:59:14;91182.72;;;16.92;34.61
5952;BME280;3001;42.622;23.194;2023-04-27T13:01:41;91180.66;;;16.82;35.56
5952;BME280;3001;42.622;23.194;2023-04-27T13:04:07;91171.59;;;16.95;34.94
5952;BME280;3001;42.622;23.194;2023-04-27T13:06:34;91181.78;;;17.16;34.74
5952;BME280;3001;42.622;23.194;2023-04-27T13:09:01;91179.78;;;17.28;36.09
5952;BME280;3001;42.622;23.194;2023-04-27T13:11:28;91180.28;;;17.49;34.45
5952;BME280;3001;42.622;23.194;2023-04-27T13:13:56;91181.59;;;17.77;34.25
5952;BME280;3001;42.622;23.194;2023-04-27T13:16:23;91173.59;;;17.89;33.65